Time;durP1;ratioP1;P1;durP2;ratioP2;P2;SDS_P1;SDS_P2;PMS_P1;PMS_P2;Temp;Humidity;BMP_temperature;BMP_pressure;BME280_temperature;BME280_humidity;BME280_pressure;Samples;Min_cycle;Max_cycle;Signal;HPM_P1;HPM_P2
2022/09/28 00:01:42;;;;;;;19.83;13.32;;;;;;;;;;5044618;28;20045;-80
2022/09/28 00:04:08;;;;;;;19.95;13.75;;;;;;;7.56;100.00;67605.97;5042904;28;20075;-80
2022/09/28 00:06:33;;;;;;;19.30;13.77;;;;;;;7.52;100.00;67604.69;5040066;28;20055;-81
2022/09/28 00:09:00;;;;;;;21.95;13.30;;;;;;;7.56;100.00;67616.59;5038376;28;20275;-81
2022/09/28 00:11:28;;;;;;;19.58;13.73;;;;;;;7.58;100.00;67616.19;5040550;28;20048;-79
2022/09/28 00:13:57;;;;;;;19.27;14.60;;;;;;;7.57;100.00;67615.63;5036299;28;20048;-81
2022/09/28 00:16:27;;;;;;;;;;;;;;;7.53;100.00;67605.25;5045785;28;20128;-79
2022/09/28 00:18:53;;;;;;;18.00;11.30;;;;;;;;;;5040121;28;20310;-80
2022/09/28 00:21:24;;;;;;;19.80;12.25;;;;;;;7.43;100.00;67599.78;5038062;28;20045;-81
2022/09/28 00:24:11;;;;;;;15.88;9.10;;;;;;;;;;5039617;28;20045;-81
2022/09/28 00:26:40;;;;;;;19.25;10.77;;;;;;;7.50;100.00;67601.84;5036094;28;20060;-80
2022/09/28 00:29:06;;;;;;;17.73;11.95;;;;;;;;;;5056530;28;20040;-81
2022/09/28 00:31:32;;;;;;;14.57;10.90;;;;;;;7.52;100.00;67604.13;5042519;28;20043;-79
2022/09/28 00:33:59;;;;;;;14.23;10.23;;;;;;;;;;5038143;28;20120;-81
2022/09/28 00:36:26;;;;;;;15.30;10.80;;;;;;;;;;5041603;28;20090;-81
2022/09/28 00:38:52;;;;;;;13.63;10.35;;;;;;;;;;5041657;28;20120;-80
2022/09/28 00:41:17;;;;;;;13.75;10.55;;;;;;;7.55;100.00;67607.50;5041588;28;20132;-80
2022/09/28 00:43:42;;;;;;;11.70;9.13;;;;;;;7.50;100.00;67607.16;5038315;28;20457;-81
2022/09/28 00:46:33;;;;;;;13.98;9.98;;;;;;;7.50;100.00;67601.84;5041678;28;20072;-81
2022/09/28 00:49:03;;;;;;;15.13;11.43;;;;;;;7.52;100.00;67604.13;5041693;28;20484;-81
2022/09/28 00:51:30;;;;;;;13.38;9.68;;;;;;;7.50;100.00;67602.41;5040512;28;20053;-81
2022/09/28 00:53:57;;;;;;;15.30;10.73;;;;;;;;;;5040444;28;20532;-81
2022/09/28 00:56:28;;;;;;;14.38;10.90;;;;;;;7.51;100.00;67603.56;5040925;28;20052;-81
2022/09/28 00:58:54;;;;;;;14.25;10.65;;;;;;;;;;5042282;28;20041;-81
2022/09/28 01:01:20;;;;;;;16.30;10.80;;;;;;;7.47;100.00;67599.56;5051831;28;20070;-81
2022/09/28 01:03:47;;;;;;;16.17;11.88;;;;;;;7.51;100.00;67602.97;5050970;28;20514;-80
2022/09/28 01:06:26;;;;;;;16.30;12.15;;;;;;;7.51;100.00;67600.91;5041721;28;20045;-81
2022/09/28 01:08:54;;;;;;;16.77;12.02;;;;;;;7.50;100.00;67601.84;5040139;28;20029;-81
2022/09/28 01:11:20;;;;;;;16.80;12.13;;;;;;;7.47;100.00;67604.88;5037839;28;20079;-82
2022/09/28 01:13:47;;;;;;;17.85;12.73;;;;;;;;;;5041296;28;20076;-81
2022/09/28 01:16:19;;;;;;;18.05;13.95;;;;;;;7.54;100.00;67601.06;5040636;28;20120;-81
2022/09/28 01:19:12;;;;;;;20.27;14.45;;;;;;;;;;5041705;28;20700;-82
2022/09/28 01:21:53;;;;;;;22.08;14.90;;;;;;;7.52;100.00;67609.41;5040362;28;20079;-81
2022/09/28 01:24:43;;;;;;;19.45;13.77;;;;;;;7.45;100.00;67602.63;5040865;28;20041;-81
2022/09/28 01:27:25;;;;;;;19.25;14.18;;;;;;;7.43;100.00;67595.06;5044868;28;20039;-81
2022/09/28 01:30:07;;;;;;;19.42;14.48;;;;;;;7.51;100.00;67602.97;5042350;28;20048;-81
2022/09/28 01:32:32;;;;;;;19.10;12.23;;;;;;;;;;5044498;28;20045;-82
2022/09/28 01:35:11;;;;;;;21.93;14.60;;;;;;;7.50;100.00;67607.16;5042898;28;20512;-80
2022/09/28 01:37:43;;;;;;;21.77;15.20;;;;;;;;;;5045153;28;20826;-80
2022/09/28 01:40:10;;;;;;;19.27;13.38;;;;;;;7.45;100.00;67602.63;5049907;28;20144;-80
2022/09/28 01:42:39;;;;;;;19.48;13.50;;;;;;;7.50;100.00;67601.84;5043054;28;20045;-79
2022/09/28 01:45:13;;;;;;;22.65;16.00;;;;;;;7.42;100.00;67593.94;5037286;28;20033;-80
2022/09/28 01:47:40;;;;;;;20.23;14.05;;;;;;;7.45;100.00;67594.69;5043948;28;20049;-81
2022/09/28 01:50:13;;;;;;;18.38;10.77;;;;;;;7.42;100.00;67593.34;5053947;28;20036;-80
2022/09/28 01:52:45;;;;;;;22.55;14.77;;;;;;;7.43;100.00;67595.06;5040415;28;20723;-82
2022/09/28 01:55:19;;;;;;;23.73;14.90;;;;;;;7.46;100.00;67603.75;5042610;28;20041;-80
2022/09/28 01:58:09;;;;;;;21.33;14.32;;;;;;;7.50;100.00;67601.84;5042871;28;20032;-79
2022/09/28 02:00:40;;;;;;;20.77;14.50;;;;;;;7.51;100.00;67600.91;4998007;28;20041;-81
2022/09/28 02:03:12;;;;;;;27.65;17.45;;;;;;;;;;5041736;28;20045;-82
2022/09/28 02:05:42;;;;;;;21.83;16.08;;;;;;;;;;5044078;28;20088;-81
2022/09/28 02:08:27;;;;;;;25.17;19.65;;;;;;;;;;5042086;28;20500;-81
2022/09/28 02:11:13;;;;;;;24.27;15.45;;;;;;;7.51;100.00;67608.84;5045520;28;20044;-80
2022/09/28 02:13:41;;;;;;;28.48;18.63;;;;;;;7.50;100.00;67601.84;5042274;28;20110;-82
2022/09/28 02:16:17;;;;;;;28.23;17.33;;;;;;;7.50;100.00;67601.84;5045131;28;20124;-80
2022/09/28 02:18:43;;;;;;;26.35;18.10;;;;;;;;;;5043713;28;20037;-81
2022/09/28 02:21:14;;;;;;;29.10;21.17;;;;;;;;;;5042502;28;20041;-82
2022/09/28 02:23:45;;;;;;;27.75;18.63;;;;;;;;;;5043127;28;20041;-81
2022/09/28 02:26:16;;;;;;;27.42;19.33;;;;;;;7.56;100.00;67605.97;5041249;28;20486;-80
2022/09/28 02:28:41;;;;;;;26.25;17.75;;;;;;;7.50;100.00;67607.16;5042336;28;20116;-80
2022/09/28 02:31:07;;;;;;;24.52;18.23;;;;;;;7.52;100.00;67604.13;5046165;28;20180;-80
2022/09/28 02:33:39;;;;;;;26.95;17.35;;;;;;;7.55;100.00;67607.50;5040445;28;20038;-81
2022/09/28 02:36:05;;;;;;;26.10;17.50;;;;;;;;;;5044683;28;20036;-81
2022/09/28 02:38:30;;;;;;;27.80;16.65;;;;;;;;;;5034983;28;20040;-82
2022/09/28 02:41:10;;;;;;;25.17;16.92;;;;;;;;;;5042533;28;20029;-80
2022/09/28 02:43:50;;;;;;;26.92;18.60;;;;;;;7.54;100.00;67606.94;5014879;28;20056;-80
2022/09/28 02:46:31;;;;;;;27.40;18.50;;;;;;;;;;5041737;28;20116;-81
2022/09/28 02:49:09;;;;;;;28.58;17.52;;;;;;;;;;5056483;28;20087;-81
2022/09/28 02:51:34;;;;;;;27.00;17.88;;;;;;;;;;5040048;28;20079;-81
2022/09/28 02:54:15;;;;;;;29.63;17.33;;;;;;;7.53;100.00;67610.53;5041405;28;20037;-80
2022/09/28 02:57:39;;;;;;;30.95;20.52;;;;;;;7.54;100.00;67606.94;5042778;28;20279;-81
2022/09/28 03:00:10;;;;;;;28.85;16.67;;;;;;;7.48;100.00;67600.16;5030277;28;20041;-81
2022/09/28 03:02:55;;;;;;;29.90;20.27;;;;;;;7.51;100.00;67608.28;5040065;28;20411;-79
2022/09/28 03:05:23;;;;;;;27.77;17.80;;;;;;;;;;5039913;28;20037;-81
2022/09/28 03:07:51;;;;;;;29.25;22.33;;;;;;;;;;5040459;28;20049;-81
2022/09/28 03:10:17;;;;;;;28.13;19.92;;;;;;;;;;5041057;28;20128;-80
2022/09/28 03:12:46;;;;;;;28.00;16.75;;;;;;;7.49;100.00;67601.28;5039785;28;20136;-81
2022/09/28 03:15:18;;;;;;;25.92;17.77;;;;;;;7.51;100.00;67608.28;5043159;28;20039;-81
2022/09/28 03:17:43;;;;;;;25.38;18.35;;;;;;;;;;5039817;28;20036;-81
2022/09/28 03:20:10;;;;;;;29.25;19.45;;;;;;;7.54;100.00;67612.25;5039870;28;20115;-81
2022/09/28 03:22:35;;;;;;;27.17;20.23;;;;;;;7.62;100.00;67612.78;5047857;28;20167;-81
2022/09/28 03:25:00;;;;;;;26.45;18.55;;;;;;;7.57;100.00;67610.34;5046633;28;21708;-80
2022/09/28 03:27:26;;;;;;;26.60;16.63;;;;;;;7.47;100.00;67604.88;5046749;28;20086;-82
2022/09/28 03:29:51;;;;;;;30.67;20.45;;;;;;;7.52;100.00;67609.41;5042895;28;20033;-81
2022/09/28 03:32:16;;;;;;;27.35;18.08;;;;;;;;;;5045636;28;20055;-83
2022/09/28 03:34:42;;;;;;;30.98;18.92;;;;;;;7.56;100.00;67605.97;5047661;28;20051;-80
2022/09/28 03:37:07;;;;;;;27.35;16.95;;;;;;;7.52;100.00;67609.97;5058321;28;20056;-81
2022/09/28 03:39:32;;;;;;;31.38;20.98;;;;;;;7.54;100.00;67606.38;5046401;28;20562;-84
2022/09/28 03:42:00;;;;;;;30.13;19.67;;;;;;;;;;5030078;28;20034;-80
2022/09/28 03:44:26;;;;;;;27.92;18.45;;;;;;;7.56;100.00;67608.63;5035965;28;20159;-81
2022/09/28 03:46:51;;;;;;;30.58;21.55;;;;;;;7.54;100.00;67611.66;5024169;28;20053;-83
2022/09/28 03:49:16;;;;;;;31.85;18.40;;;;;;;;;;5024936;28;20042;-82
2022/09/28 03:51:42;;;;;;;29.33;19.77;;;;;;;7.56;100.00;67614.50;5023630;28;20056;-80
2022/09/28 03:54:07;;;;;;;29.92;20.63;;;;;;;;;;4996081;28;20042;-82
2022/09/28 03:56:32;;;;;;;32.88;22.55;;;;;;;7.68;100.00;67622.22;5008005;22;20049;-85
2022/09/28 03:58:58;;;;;;;31.02;23.55;;;;;;;7.66;100.00;67620.53;5038394;28;20041;-85
2022/09/28 04:01:23;;;;;;;33.25;21.45;;;;;;;7.64;100.00;67623.56;5029819;28;20538;-83
2022/09/28 04:03:56;;;;;;;30.67;19.25;;;;;;;7.62;100.00;67616.00;5029155;28;20578;-84
2022/09/28 04:06:25;;;;;;;31.83;22.17;;;;;;;7.57;100.00;67618.28;5026555;28;20034;-86
2022/09/28 04:08:50;;;;;;;35.08;23.67;;;;;;;;;;5027164;28;20042;-84
2022/09/28 04:11:16;;;;;;;33.50;22.55;;;;;;;7.65;100.00;67618.81;5020692;22;20048;-83
2022/09/28 04:13:41;;;;;;;37.50;22.75;;;;;;;7.66;100.00;67614.66;5028716;28;20073;-82
2022/09/28 04:16:10;;;;;;;33.55;23.02;;;;;;;7.68;100.00;67630.75;5031123;28;20041;-82
2022/09/28 04:18:35;;;;;;;33.77;20.70;;;;;;;;;;5018354;28;20038;-81
2022/09/28 04:21:05;;;;;;;34.22;22.33;;;;;;;7.62;100.00;67615.41;5010460;28;20069;-81
2022/09/28 04:23:31;;;;;;;36.03;24.15;;;;;;;7.60;100.00;67623.78;5023401;28;20047;-82
2022/09/28 04:25:57;;;;;;;35.72;24.13;;;;;;;7.63;100.00;67616.56;5024242;28;20030;-83
2022/09/28 04:31:10;;;;;;;34.53;23.90;;;;;;;;;;5007506;28;20052;-81
2022/09/28 04:33:35;;;;;;;34.50;24.25;;;;;;;;;;5006410;28;20050;-82
2022/09/28 04:36:00;;;;;;;32.83;20.75;;;;;;;7.60;100.00;67613.75;5008019;28;20052;-82
2022/09/28 04:38:26;;;;;;;39.67;21.25;;;;;;;7.56;100.00;67609.19;5006749;28;20045;-81
2022/09/28 04:40:51;;;;;;;36.97;23.90;;;;;;;;;;5012007;28;20041;-82
2022/09/28 04:43:16;;;;;;;32.58;20.08;;;;;;;;;;5007130;28;20045;-82
2022/09/28 04:45:41;;;;;;;33.97;22.15;;;;;;;7.51;100.00;67608.28;5003998;28;20738;-82
2022/09/28 04:48:07;;;;;;;32.20;19.27;;;;;;;7.51;100.00;67602.97;5014249;28;20520;-82
2022/09/28 04:50:32;;;;;;;35.70;21.55;;;;;;;7.50;100.00;67602.41;5016158;28;20413;-82
2022/09/28 04:52:59;;;;;;;32.78;21.13;;;;;;;;;;5002881;28;20121;-82
2022/09/28 04:55:24;;;;;;;33.05;20.17;;;;;;;;;;5002650;28;20061;-82
2022/09/28 04:57:50;;;;;;;33.03;19.55;;;;;;;7.49;100.00;67601.28;5002613;28;20046;-82
2022/09/28 05:00:16;;;;;;;32.33;18.52;;;;;;;7.49;100.00;67600.72;5001145;28;20037;-82
2022/09/28 05:02:41;;;;;;;33.15;21.58;;;;;;;7.46;100.00;67598.44;5004458;28;20145;-83
2022/09/28 05:05:07;;;;;;;31.73;20.35;;;;;;;7.44;100.00;67596.19;5005051;28;20120;-83
2022/09/28 05:07:32;;;;;;;36.28;22.40;;;;;;;7.46;100.00;67603.19;5009816;28;20048;-84
2022/09/28 05:09:59;;;;;;;36.67;21.65;;;;;;;;;;5005739;28;20137;-84
2022/09/28 05:12:25;;;;;;;33.80;18.92;;;;;;;7.44;100.00;67600.91;5015607;28;20447;-84
2022/09/28 05:14:50;;;;;;;35.33;22.33;;;;;;;;;;4999081;28;20050;-83
2022/09/28 05:17:15;;;;;;;37.05;18.42;;;;;;;7.41;100.00;67592.78;5000863;28;20193;-83
2022/09/28 05:19:41;;;;;;;37.97;21.20;;;;;;;;;;5009315;28;20053;-82
2022/09/28 05:22:10;;;;;;;35.95;21.77;;;;;;;;;;4998760;28;20077;-83
2022/09/28 05:24:35;;;;;;;;;;;;;;;;;;5001565;28;20050;-83
2022/09/28 05:27:00;;;;;;;39.78;23.73;;;;;;;;;;5017820;28;19977;-83
2022/09/28 05:29:25;;;;;;;41.95;24.42;;;;;;;7.36;100.00;67592.41;5001039;28;20060;-83
2022/09/28 05:31:51;;;;;;;61.55;38.17;;;;;;;;;;5013571;28;20559;-83
2022/09/28 05:34:16;;;;;;;35.72;21.40;;;;;;;;;;5011807;28;20061;-83
2022/09/28 05:36:41;;;;;;;41.15;25.35;;;;;;;;;;5000544;28;20042;-83
2022/09/28 05:39:07;;;;;;;43.20;26.30;;;;;;;;;;4998543;28;21580;-83
2022/09/28 05:41:32;;;;;;;42.35;26.30;;;;;;;7.43;100.00;67595.06;5021487;28;20491;-83
2022/09/28 05:43:58;;;;;;;44.97;24.42;;;;;;;7.40;100.00;67596.97;5015926;28;20041;-83
2022/09/28 05:46:23;;;;;;;43.13;25.48;;;;;;;7.41;100.00;67600.16;5016717;28;20041;-83
2022/09/28 05:48:51;;;;;;;41.45;21.70;;;;;;;7.40;100.00;67591.09;4996579;28;20076;-83
2022/09/28 05:51:16;;;;;;;44.28;26.60;;;;;;;7.47;100.00;67604.31;4998862;28;20120;-83
2022/09/28 05:53:41;;;;;;;47.25;27.67;;;;;;;;;;4998247;28;20130;-83
2022/09/28 05:56:07;;;;;;;51.33;30.45;;;;;;;7.56;100.00;67608.63;4998606;28;20041;-83
2022/09/28 05:58:32;;;;;;;44.63;26.10;;;;;;;7.47;100.00;67604.88;4999601;28;20046;-83
2022/09/28 06:00:57;;;;;;;48.25;26.52;;;;;;;;;;5021242;28;20110;-81
2022/09/28 06:03:23;;;;;;;52.45;30.17;;;;;;;;;;5014601;28;20105;-81
2022/09/28 06:05:48;;;;;;;47.20;26.98;;;;;;;7.46;100.00;67603.75;5006706;28;20046;-82
2022/09/28 06:08:13;;;;;;;47.45;28.92;;;;;;;7.53;100.00;67602.59;5001667;28;20038;-81
2022/09/28 06:10:39;;;;;;;46.90;25.63;;;;;;;7.59;100.00;67617.31;5011674;28;20382;-82
2022/09/28 06:13:06;;;;;;;48.20;30.02;;;;;;;7.65;100.00;67624.69;5017879;28;20050;-82
2022/09/28 06:15:32;;;;;;;44.85;23.58;;;;;;;;;;5020118;28;20113;-82
2022/09/28 06:18:04;;;;;;;46.30;24.08;;;;;;;;;;5018606;28;20176;-82
2022/09/28 06:20:35;;;;;;;44.70;23.40;;;;;;;7.55;100.00;67613.38;5019478;28;21651;-82
2022/09/28 06:23:00;;;;;;;49.72;28.83;;;;;;;;;;5021790;28;20046;-82
2022/09/28 06:25:28;;;;;;;47.33;27.63;;;;;;;7.62;100.00;67616.00;5021050;28;20041;-82
2022/09/28 06:27:56;;;;;;;50.83;29.38;;;;;;;7.65;100.00;67624.13;5021121;28;20679;-83
2022/09/28 06:30:25;;;;;;;45.00;23.75;;;;;;;7.65;100.00;67619.41;5021420;28;20432;-81
2022/09/28 06:32:51;;;;;;;46.75;29.08;;;;;;;;;;5014067;28;20310;-83
2022/09/28 06:35:16;;;;;;;46.45;24.85;;;;;;;7.72;100.00;67626.75;5001302;28;20045;-83
2022/09/28 06:37:43;;;;;;;41.08;23.10;;;;;;;7.72;100.00;67631.50;5003259;28;20056;-83
2022/09/28 06:40:09;;;;;;;41.90;20.85;;;;;;;7.72;100.00;67632.06;5006063;28;20037;-83
2022/09/28 06:42:34;;;;;;;46.33;27.77;;;;;;;;;;5005957;28;20552;-82
2022/09/28 06:45:00;;;;;;;44.25;26.13;;;;;;;7.75;100.00;67635.44;5024494;28;20069;-83
2022/09/28 06:47:25;;;;;;;45.88;27.63;;;;;;;7.79;100.00;67639.41;5006342;28;20038;-82
2022/09/28 06:49:54;;;;;;;44.80;27.58;;;;;;;7.82;100.00;67637.50;5012346;28;20041;-84
2022/09/28 06:52:20;;;;;;;45.67;23.92;;;;;;;7.89;100.00;67645.44;5029401;28;20046;-83
2022/09/28 06:54:45;;;;;;;40.90;26.10;;;;;;;7.86;100.00;67642.59;5019313;28;20046;-83
2022/09/28 06:57:11;;;;;;;46.65;26.45;;;;;;;;;;5013434;28;20048;-82
2022/09/28 06:59:36;;;;;;;44.83;26.27;;;;;;;7.98;100.00;67655.06;5005152;28;20095;-82
2022/09/28 07:02:01;;;;;;;45.58;28.90;;;;;;;8.04;100.00;67667.72;5004258;28;20034;-83
2022/09/28 07:04:27;;;;;;;42.10;28.70;;;;;;;8.08;100.00;67672.22;5033462;28;20128;-82
2022/09/28 07:06:53;;;;;;;38.13;21.88;;;;;;;8.12;100.00;67670.91;5014025;28;20041;-84
2022/09/28 07:09:18;;;;;;;45.13;25.92;;;;;;;8.16;100.00;67680.16;5018761;28;20052;-83
2022/09/28 07:11:43;;;;;;;39.55;22.10;;;;;;;;;;5011196;28;20062;-84
2022/09/28 07:14:10;;;;;;;39.60;24.42;;;;;;;8.14;100.00;67678.47;5003094;28;20050;-84
2022/09/28 07:16:37;;;;;;;37.28;20.63;;;;;;;;;;5001545;28;20045;-84
2022/09/28 07:19:02;;;;;;;38.65;21.02;;;;;;;8.11;100.00;67675.06;5004781;28;20141;-82
2022/09/28 07:21:27;;;;;;;40.97;25.85;;;;;;;8.19;100.00;67678.81;5003245;28;20069;-82
2022/09/28 07:23:53;;;;;;;39.78;28.48;;;;;;;8.22;100.00;67687.53;5018352;28;20045;-82
2022/09/28 07:26:18;;;;;;;38.13;22.35;;;;;;;8.19;100.00;67684.13;5004554;28;20137;-84
2022/09/28 07:28:44;;;;;;;39.63;26.98;;;;;;;;;;5033816;28;20064;-82
2022/09/28 07:31:10;;;;;;;36.42;20.95;;;;;;;8.18;100.00;67677.13;5006005;28;20346;-83
2022/09/28 07:33:36;;;;;;;38.85;22.20;;;;;;;8.21;100.00;67681.09;5005567;28;20634;-84
2022/09/28 07:36:05;;;;;;;42.45;28.73;;;;;;;;;;5002880;28;20382;-83
2022/09/28 07:38:31;;;;;;;41.88;28.63;;;;;;;8.30;100.00;67690.72;5002305;28;20050;-83
2022/09/28 07:41:13;;;;;;;40.92;29.00;;;;;;;8.36;100.00;67697.53;5003153;28;20133;-83
2022/09/28 07:43:39;;;;;;;40.55;27.90;;;;;;;8.42;100.00;67703.78;4994674;28;20038;-83
2022/09/28 07:46:10;;;;;;;36.63;22.95;;;;;;;8.48;100.00;67710.56;5009744;28;20034;-84
2022/09/28 07:48:36;;;;;;;39.83;28.73;;;;;;;;;;5001468;28;20057;-82
2022/09/28 07:51:02;;;;;;;40.05;27.60;;;;;;;;;;5022468;28;20531;-84
2022/09/28 07:53:28;;;;;;;37.90;25.92;;;;;;;;;;5007866;28;20041;-84
2022/09/28 07:55:56;;;;;;;34.08;25.02;;;;;;;8.68;100.00;67732.66;5021149;28;20042;-83
2022/09/28 07:58:21;;;;;;;37.20;26.65;;;;;;;8.74;100.00;67740.00;5018971;28;20041;-84
2022/09/28 08:00:49;;;;;;;33.80;25.35;;;;;;;8.81;100.00;67747.41;5003299;28;20457;-84
2022/09/28 08:03:16;;;;;;;33.55;24.92;;;;;;;8.82;100.00;67746.44;5010574;28;20515;-83
2022/09/28 08:05:42;;;;;;;35.17;25.83;;;;;;;8.80;100.00;67746.84;5004175;28;20050;-82
2022/09/28 08:08:07;;;;;;;33.40;23.35;;;;;;;8.76;100.00;67742.28;5005754;28;20044;-83
2022/09/28 08:10:33;;;;;;;32.85;25.13;;;;;;;8.88;100.00;67754.75;5024669;28;20057;-83
2022/09/28 08:13:02;;;;;;;32.30;24.58;;;;;;;8.95;100.00;67763.25;5033758;28;20097;-85
2022/09/28 08:15:28;;;;;;;29.65;22.50;;;;;;;;;;5003283;28;20061;-83
2022/09/28 08:17:54;;;;;;;28.58;21.38;;;;;;;9.03;100.00;67772.31;5002885;28;20077;-83
2022/09/28 08:23:08;;;;;;;31.08;25.05;;;;;;;9.07;100.00;67776.28;5022251;28;20103;-84
2022/09/28 08:25:35;;;;;;;;;;;;;;;9.22;100.00;67793.28;5001543;28;20068;-83
2022/09/28 08:28:01;;;;;;;27.38;18.58;;;;;;;9.10;100.00;67785.00;5004018;28;19925;-82
2022/09/28 08:30:27;;;;;;;32.03;20.98;;;;;;;9.12;100.00;67781.97;5002142;28;20046;-83
2022/09/28 08:32:52;;;;;;;27.80;22.50;;;;;;;9.16;100.00;67786.47;5004285;28;20046;-83
2022/09/28 08:35:18;;;;;;;29.52;17.20;;;;;;;9.11;100.00;67774.94;5002846;28;20078;-83
2022/09/28 08:37:51;;;;;;;28.10;18.73;;;;;;;9.21;100.00;67786.28;5002055;28;20103;-83
2022/09/28 08:40:19;;;;;;;25.20;17.42;;;;;;;;;;5002338;28;20103;-83
2022/09/28 08:42:44;;;;;;;26.20;18.80;;;;;;;9.26;100.00;67797.81;4998982;28;20038;-82
2022/09/28 08:45:15;;;;;;;25.67;17.63;;;;;;;;;;5002144;28;20045;-83
2022/09/28 08:51:19;;;;;;;23.33;15.40;;;;;;;9.24;100.00;67800.88;4984078;28;20583;-83
2022/09/28 08:53:52;;;;;;;23.90;14.75;;;;;;;9.11;100.00;67785.56;5037789;28;20093;-82
2022/09/28 08:56:26;;;;;;;23.08;15.32;;;;;;;9.18;100.00;67788.75;5013099;28;20042;-83
2022/09/28 08:58:56;;;;;;;23.65;16.60;;;;;;;;;;5000786;28;20404;-82
2022/09/28 09:01:27;;;;;;;23.42;14.57;;;;;;;9.26;100.00;67797.81;5001623;28;20045;-83
2022/09/28 09:03:52;;;;;;;22.83;14.38;;;;;;;9.17;100.00;67787.59;4999385;28;20161;-82
2022/09/28 09:06:47;;;;;;;22.67;15.45;;;;;;;9.31;100.00;67807.66;5004778;28;20054;-83
2022/09/28 09:09:19;;;;;;;21.23;13.60;;;;;;;;;;4977757;28;20046;-82
2022/09/28 09:11:50;;;;;;;17.50;13.45;;;;;;;;;;5004507;28;20046;-83
2022/09/28 09:14:26;;;;;;;16.90;11.32;;;;;;;;;;5002684;28;20046;-83
2022/09/28 09:17:25;;;;;;;14.45;10.80;;;;;;;9.60;100.00;67835.22;5004384;28;20045;-82
2022/09/28 09:20:01;;;;;;;;;;;;;;;9.60;100.00;67832.00;5006182;28;20512;-82
2022/09/28 09:22:40;;;;;;;14.85;11.00;;;;;;;9.59;100.00;67831.44;5010752;28;20305;-82
2022/09/28 09:25:17;;;;;;;14.43;9.60;;;;;;;;;;5004622;28;20044;-83
2022/09/28 09:27:42;;;;;;;16.80;12.50;;;;;;;;;;5020955;28;20389;-82
2022/09/28 09:30:15;;;;;;;18.63;12.68;;;;;;;9.65;100.00;67840.91;5018222;28;20048;-83
2022/09/28 09:32:53;;;;;;;18.90;14.52;;;;;;;;;;5008770;28;20048;-82
2022/09/28 09:35:38;;;;;;;18.65;12.18;;;;;;;9.61;100.00;67836.38;5017840;28;20088;-82
2022/09/28 09:38:05;;;;;;;20.60;14.43;;;;;;;;;;5009289;28;20056;-82
2022/09/28 09:40:37;;;;;;;21.55;15.55;;;;;;;9.57;100.00;67837.13;5008209;28;20083;-80
2022/09/28 09:43:18;;;;;;;19.23;15.50;;;;;;;;;;5008866;28;20037;-83
2022/09/28 09:45:59;;;;;;;21.85;18.10;;;;;;;9.78;100.00;67854.50;5004006;28;20118;-83
2022/09/28 09:48:35;;;;;;;18.25;14.82;;;;;;;9.93;100.00;67872.09;5014697;28;20050;-84
2022/09/28 09:51:10;;;;;;;16.55;11.55;;;;;;;9.96;100.00;67872.25;5008520;28;20508;-82
2022/09/28 09:53:44;;;;;;;16.65;13.77;;;;;;;10.12;100.00;67892.50;5005547;28;20040;-82
2022/09/28 09:56:19;;;;;;;16.17;12.45;;;;;;;10.21;100.00;67899.47;5031594;22;20057;-80
2022/09/28 09:58:47;;;;;;;15.93;11.02;;;;;;;;;;4979374;28;20046;-81
2022/09/28 10:01:17;;;;;;;16.08;13.32;;;;;;;10.09;100.00;67889.09;4978065;28;20050;-83
2022/09/28 10:03:44;;;;;;;15.60;12.57;;;;;;;;;;4969468;28;20097;-82
2022/09/28 10:06:23;;;;;;;15.52;12.05;;;;;;;10.12;100.00;67893.06;4979609;28;20784;-79
2022/09/28 10:09:24;;;;;;;15.80;13.90;;;;;;;10.06;100.00;67883.03;4970147;28;20450;-83
2022/09/28 10:11:50;;;;;;;17.92;14.25;;;;;;;10.20;100.00;67898.34;4944702;28;20567;-80
2022/09/28 10:14:20;;;;;;;14.07;11.10;;;;;;;10.23;100.00;67901.75;4971931;28;20066;-79
2022/09/28 10:16:47;;;;;;;13.73;11.43;;;;;;;10.34;100.00;67916.91;4980603;28;20050;-80
2022/09/28 10:19:15;;;;;;;13.70;10.50;;;;;;;10.46;100.00;67935.84;4982807;28;20045;-81
2022/09/28 10:21:41;;;;;;;17.27;12.30;;;;;;;10.62;100.00;67948.13;4966428;28;20050;-79
2022/09/28 10:24:16;;;;;;;15.43;12.02;;;;;;;10.71;100.00;67953.00;4978343;28;20050;-80
2022/09/28 10:26:47;;;;;;;13.82;12.32;;;;;;;10.69;100.00;67950.16;4990111;28;20133;-81
2022/09/28 10:29:18;;;;;;;12.68;9.65;;;;;;;10.87;100.00;67975.34;4963632;28;20054;-80
2022/09/28 10:31:49;;;;;;;11.20;8.13;;;;;;;10.75;99.00;67962.28;4983259;28;20043;-79
2022/09/28 10:34:18;;;;;;;9.95;7.57;;;;;;;10.80;98.75;67967.97;4978588;28;20051;-81
2022/09/28 10:36:51;;;;;;;11.52;9.35;;;;;;;10.82;98.41;67970.25;4969024;28;20051;-81
2022/09/28 10:39:35;;;;;;;8.77;7.43;;;;;;;10.98;98.10;67988.41;4981336;28;20153;-81
2022/09/28 10:42:06;;;;;;;8.68;6.70;;;;;;;10.98;96.96;67987.84;4985997;28;20124;-81
2022/09/28 10:44:32;;;;;;;8.93;6.65;;;;;;;;;;4970609;28;20042;-81
2022/09/28 10:47:04;;;;;;;9.88;7.72;;;;;;;10.96;99.06;67985.56;4966368;28;20043;-82
2022/09/28 10:49:45;;;;;;;8.98;6.70;;;;;;;10.90;97.80;67979.31;4967745;28;20045;-81
2022/09/28 10:52:32;;;;;;;8.18;6.65;;;;;;;11.01;98.01;67991.81;4985924;28;20026;-80
2022/09/28 10:54:57;;;;;;;9.43;7.55;;;;;;;11.10;97.05;68000.88;4987414;28;20046;-80
2022/09/28 10:57:41;;;;;;;7.82;6.85;;;;;;;11.09;96.89;68000.31;4976643;28;20042;-80
2022/09/28 11:00:26;;;;;;;7.05;5.38;;;;;;;;;;4985044;28;20038;-82
2022/09/28 11:02:51;;;;;;;9.00;5.85;;;;;;;11.23;95.42;68016.22;4976895;28;20457;-80
2022/09/28 11:05:26;;;;;;;6.57;5.75;;;;;;;11.37;95.94;68031.56;4980529;28;20117;-82
2022/09/28 11:07:54;;;;;;;6.15;4.88;;;;;;;11.44;95.08;68034.16;4977799;28;20113;-79
2022/09/28 11:10:24;;;;;;;6.18;4.70;;;;;;;11.35;95.23;68029.28;4978391;28;20698;-81
2022/09/28 11:12:52;;;;;;;6.75;5.35;;;;;;;11.44;95.58;68036.81;4977392;28;20066;-80
2022/09/28 11:15:24;;;;;;;7.30;5.47;;;;;;;11.44;94.69;68038.94;4982150;28;20043;-81
2022/09/28 11:17:50;;;;;;;5.28;3.92;;;;;;;11.33;92.72;68027.00;4984070;28;20069;-81
2022/09/28 11:20:25;;;;;;;5.00;4.00;;;;;;;11.29;93.20;68017.13;4986145;28;20470;-82
2022/09/28 11:22:51;;;;;;;4.82;3.70;;;;;;;11.37;93.11;68031.00;4986979;28;20067;-83
2022/09/28 11:25:16;;;;;;;5.50;3.53;;;;;;;;;;4987398;28;20813;-80
2022/09/28 11:27:56;;;;;;;5.70;3.80;;;;;;;11.57;92.66;68050.47;4981984;28;20063;-81
2022/09/28 11:30:48;;;;;;;4.80;3.95;;;;;;;11.59;93.24;68055.94;4970073;28;20282;-79
2022/09/28 11:33:35;;;;;;;4.80;3.30;;;;;;;11.56;91.96;68057.31;4898057;28;20064;-82
2022/09/28 11:36:12;;;;;;;4.38;2.85;;;;;;;;;;4907401;29;20055;-82
2022/09/28 11:38:56;;;;;;;3.75;2.17;;;;;;;;;;4904509;29;20437;-81
2022/09/28 11:41:35;;;;;;;2.90;2.08;;;;;;;11.61;89.58;68063.00;4906271;29;20439;-80
2022/09/28 11:44:22;;;;;;;4.47;1.95;;;;;;;11.65;90.09;68062.19;4917902;29;20047;-80
2022/09/28 11:47:03;;;;;;;2.92;1.83;;;;;;;11.76;89.27;68074.69;4937743;29;20048;-79
2022/09/28 11:49:44;;;;;;;2.35;1.48;;;;;;;11.82;89.41;68086.84;4910467;29;20036;-81
2022/09/28 11:52:18;;;;;;;4.38;1.95;;;;;;;11.99;89.74;68097.03;4901124;29;20068;-82
2022/09/28 11:54:49;;;;;;;3.13;1.60;;;;;;;12.08;87.81;68109.94;4901396;29;20701;-80
2022/09/28 11:57:19;;;;;;;2.25;1.50;;;;;;;12.09;87.80;68111.66;4891719;29;20131;-83
2022/09/28 11:59:57;;;;;;;3.13;1.73;;;;;;;12.16;88.86;68119.03;4902523;29;20539;-82
2022/09/28 12:02:33;;;;;;;3.00;1.85;;;;;;;12.17;86.19;68117.50;4921306;29;20080;-82
2022/09/28 12:05:23;;;;;;;2.90;1.92;;;;;;;12.09;84.54;68108.97;4947760;28;20097;-79
2022/09/28 12:08:03;;;;;;;2.95;2.10;;;;;;;12.16;87.17;68116.34;4978669;28;20077;-80
2022/09/28 12:11:03;;;;;;;2.90;2.10;;;;;;;12.37;87.17;68139.66;4986737;28;20046;-79
2022/09/28 12:13:36;;;;;;;3.97;2.22;;;;;;;12.25;86.88;68126.00;4963183;28;20051;-80
2022/09/28 12:16:25;;;;;;;4.72;1.70;;;;;;;12.19;84.72;68123.00;4975862;28;20043;-81
2022/09/28 12:19:17;;;;;;;3.13;2.33;;;;;;;12.25;84.75;68126.00;4951919;28;20073;-80
2022/09/28 12:21:58;;;;;;;3.50;1.50;;;;;;;12.29;87.98;68130.56;5005719;28;20046;-80
2022/09/28 12:24:26;;;;;;;2.40;1.35;;;;;;;;;;4983831;28;20039;-81
2022/09/28 12:26:52;;;;;;;2.00;1.63;;;;;;;;;;4978789;28;20634;-79
2022/09/28 12:29:24;;;;;;;3.55;1.98;;;;;;;12.53;86.10;68155.16;4963713;28;20039;-80
2022/09/28 12:32:00;;;;;;;3.80;2.20;;;;;;;12.95;86.67;68201.22;4961270;28;20047;-82